Data for 07/24/2018

Time Sea-Level Adjusted Pressure Absolute Pressure Temperature Relative Humidity Dew Point   
(mb) (inHg) (mb) (inHg) (C) (F) (%) (C) (F)
00:05 1025 30.27 854 25.22 18.2 64.7 30 0.6 33.1
00:10 1025 30.27 854 25.22 17.6 63.7 33 1.1 34
00:15 1025 30.27 854 25.22 17 62.6 33 0.7 33.3
00:20 1025 30.27 854 25.22 17.2 63 32 0.4 32.8
00:25 1025 30.27 854 25.22 17.5 63.5 31 0.3 32.5
00:30 1025 30.27 854 25.22 17.3 63.1 32 0.4 32.7
00:35 1025 30.27 854 25.22 17.1 62.9 31 0.2 32.3
00:40 1025 30.27 854 25.22 17.3 63.2 32 0.5 32.9
00:45 1025 30.27 854 25.22 17.4 63.3 32 0.8 33.5
00:50 1025 30.27 854 25.22 17.1 62.7 34 1.3 34.3
00:55 1025 30.27 854 25.22 16.8 62.2 36 1.9 35.4
01:00 1025 30.27 854 25.22 16.6 61.9 36 1.5 34.8
01:05 1025 30.27 854 25.22 16.4 61.5 36 1.4 34.6
01:10 1025 30.27 854 25.22 16.2 61.2 36 1.1 34.1
01:15 1025 30.27 854 25.22 16.3 61.4 36 1.3 34.4
01:20 1025 30.27 854 25.22 16.4 61.5 36 1.3 34.4
01:25 1025 30.27 854 25.22 16.2 61.1 37 1.7 35.1
01:30 1025 30.27 854 25.22 15.9 60.5 39 1.8 35.3
01:35 1025 30.27 854 25.22 15.8 60.4 38 1.5 34.6
01:40 1025 30.27 854 25.22 15.9 60.7 37 1.5 34.8
01:45 1025 30.27 854 25.22 15.8 60.5 37 1.4 34.6
01:50 1024 30.24 854 25.22 15.7 60.3 38 1.6 34.9
01:55 1024 30.24 854 25.22 15.7 60.3 39 2 35.6
02:00 1024 30.24 854 25.22 15.8 60.4 39 2.1 35.8
02:05 1024 30.24 854 25.22 15.9 60.5 39 2 35.7
02:10 1024 30.24 854 25.22 15.5 59.9 39 1.6 34.9
02:15 1024 30.24 854 25.22 15.3 59.6 40 1.7 35.1
02:20 1024 30.24 854 25.22 15.4 59.7 38 1.4 34.5
02:25 1024 30.24 854 25.22 15.6 60 38 1.3 34.3
02:30 1024 30.24 854 25.22 15.6 60 38 1.4 34.4
02:35 1024 30.24 854 25.22 15.7 60.2 37 1.2 34.1
02:40 1025 30.27 854 25.22 15.7 60.3 37 1.3 34.3
02:45 1025 30.27 854 25.22 15.8 60.5 37 1.2 34.1
02:50 1025 30.27 854 25.22 15.7 60.3 37 1.3 34.3
02:55 1024 30.24 854 25.22 15.7 60.3 37 1.2 34.1
03:00 1025 30.27 854 25.22 15.7 60.3 36 1 33.8
03:05 1025 30.27 854 25.22 15.7 60.2 36 0.9 33.7
03:10 1025 30.27 854 25.22 15.7 60.3 35 0.4 32.8
03:15 1025 30.27 854 25.22 15.9 60.7 35 0.4 32.8
03:20 1025 30.27 854 25.22 15.8 60.5 33 -0.3 31.5
03:25 1025 30.27 854 25.22 15.9 60.5 34 0.3 32.5
03:30 1025 30.27 854 25.22 15.4 59.7 37 1 33.7
03:35 1025 30.27 854 25.22 15 59 38 0.8 33.5
03:40 1025 30.27 854 25.22 15.1 59.3 34 -0.3 31.4
03:45 1025 30.27 854 25.22 15.6 60 34 -0.2 31.7
03:50 1025 30.27 854 25.22 15.7 60.2 33 -0.5 31.1
03:55 1025 30.27 854 25.22 15.7 60.3 34 0.1 32.2
04:00 1025 30.27 854 25.22 15 58.9 38 1 33.7
04:05 1025 30.27 854 25.22 14.6 58.2 40 1.4 34.5
04:10 1025 30.27 854 25.22 14 57.3 41 1 33.8
04:15 1025 30.27 854 25.22 13.9 57.1 41 0.9 33.6
04:20 1025 30.27 854 25.22 14.1 57.5 40 0.7 33.3
04:25 1025 30.27 854 25.22 14.4 58 37 -0.1 31.9
04:30 1025 30.27 854 25.22 14.6 58.3 37 0.1 32.2
04:35 1025 30.27 854 25.22 14.7 58.5 38 0.5 32.9
04:40 1025 30.27 854 25.22 14.3 57.8 40 1 33.9
04:45 1025 30.27 854 25.22 14.1 57.4 41 1.1 33.9
04:50 1025 30.27 854 25.22 13.8 56.9 41 1 33.7
04:55 1025 30.27 854 25.22 13.6 56.5 42 0.9 33.6
05:00 1025 30.27 854 25.22 13.5 56.3 42 1 33.7
05:05 1025 30.27 854 25.22 13.7 56.7 41 0.7 33.3
05:10 1025 30.27 854 25.22 13.9 57.1 38 0.1 32.1
05:15 1025 30.27 854 25.22 14.3 57.7 37 0 32.1
05:20 1025 30.27 854 25.22 14.5 58.1 37 -0 31.9
05:25 1025 30.27 854 25.22 14.4 57.8 38 0.2 32.4
05:30 1025 30.27 854 25.22 14.3 57.7 38 0.4 32.7
05:35 1025 30.27 854 25.22 14.5 58.1 38 0.4 32.7
05:40 1025 30.27 854 25.22 14.4 58 39 0.6 33.1
05:45 1025 30.27 854 25.22 14.3 57.7 38 0.3 32.5
05:50 1025 30.27 854 25.22 14.7 58.4 38 0.7 33.3
05:55 1025 30.27 854 25.22 14.5 58.1 40 1.1 33.9
06:00 1025 30.27 854 25.22 14.5 58 40 1.1 33.9
06:05 1025 30.27 854 25.22 14.3 57.7 41 1.4 34.6
06:10 1025 30.27 854 25.22 14.3 57.7 42 1.7 35.1
06:15 1025 30.27 854 25.22 14.5 58.1 42 1.8 35.3
06:20 1024 30.24 854 25.22 14.6 58.3 41 1.7 35.1
06:25 1025 30.27 854 25.22 15.1 59.2 44 3 37.4
06:30 1025 30.27 854 25.22 15.4 59.6 43 3 37.4
06:35 1025 30.27 854 25.22 15.7 60.3 41 2.6 36.8
06:40 1025 30.27 854 25.22 16.2 61.2 39 2.3 36.1
06:45 1025 30.27 854 25.22 16.5 61.8 38 2.4 36.3
06:50 1025 30.27 854 25.22 17.1 62.8 37 2.4 36.4
06:55 1025 30.27 854 25.22 17.3 63.1 35 1.7 35
07:00 1025 30.27 854 25.22 17.7 63.8 36 2.4 36.3
07:05 1025 30.27 854 25.22 17.8 64 36 2.8 37
07:10 1025 30.27 855 25.25 17.9 64.2 36 2.9 37.2
07:15 1026 30.3 855 25.25 18 64.3 35 2.4 36.3
07:20 1026 30.3 855 25.25 18.6 65.5 33 2.1 35.9
07:25 1026 30.3 855 25.25 18.5 65.2 34 2.3 36.2
07:30 1026 30.3 855 25.25 18.7 65.7 33 2.1 35.8
07:35 1026 30.3 855 25.25 18.6 65.5 33 2.4 36.3
07:40 1026 30.3 855 25.25 18.3 64.9 34 2.1 35.8
07:45 1026 30.3 855 25.25 18.5 65.4 33 2.2 36
07:50 1026 30.3 855 25.25 18.3 64.9 34 2.2 36
07:55 1026 30.3 855 25.25 18 64.5 35 2.6 36.7
08:00 1026 30.3 855 25.25 18.3 64.9 36 2.9 37.2
08:05 1026 30.3 856 25.28 18.5 65.2 40 4.8 40.6
08:10 1026 30.3 856 25.28 18.2 64.7 41 5 41
08:15 1026 30.3 856 25.28 17.7 63.9 42 4.7 40.5
08:20 1026 30.3 856 25.28 17.7 63.9 39 3.9 39
08:25 1026 30.3 856 25.28 18.3 64.9 37 3.5 38.3
08:30 1026 30.3 856 25.28 18.7 65.7 37 3.8 38.8
08:35 1026 30.3 856 25.28 18.1 64.6 38 3.6 38.5
08:40 1026 30.3 855 25.25 18.2 64.7 37 3.2 37.8
08:45 1026 30.3 855 25.25 18.3 65 37 3.3 38
08:50 1026 30.3 855 25.25 18 64.5 37 3.2 37.7
08:55 1026 30.3 856 25.28 18.6 65.5 36 3.5 38.2
09:00 1026 30.3 856 25.28 19.4 66.9 35 3.5 38.3
09:05 1026 30.3 856 25.28 19.6 67.3 35 3.9 39
09:10 1026 30.3 855 25.25 20 67.9 31 2.3 36.1
09:15 1026 30.3 855 25.25 20.3 68.5 31 2.6 36.7
09:20 1026 30.3 855 25.25 20.4 68.6 32 3.1 37.5
09:25 1026 30.3 855 25.25 21.3 70.4 31 3.6 38.5
09:30 1026 30.3 855 25.25 21.1 70 29 2.5 36.4
09:35 1026 30.3 855 25.25 20.8 69.4 28 1.8 35.2
09:40 1026 30.3 855 25.25 21.1 70 28 2.2 35.9
09:45 1026 30.3 855 25.25 21.4 70.4 26 1.4 34.5
09:50 1026 30.3 855 25.25 21.5 70.7 26 1.6 34.8
09:55 1026 30.3 855 25.25 21.6 70.8 25 1.1 34
10:00 1026 30.3 855 25.25 21.5 70.7 25 0.7 33.3
10:05 1026 30.3 855 25.25 21.4 70.6 25 1 33.8
10:10 1026 30.3 855 25.25 21.6 71 26 1.5 34.7
10:15 1026 30.3 855 25.25 22.1 71.7 25 1.5 34.7
10:20 1025 30.27 855 25.25 23.2 73.7 22 0.7 33.3
10:25 1025 30.27 854 25.22 22.9 73.2 24 1.3 34.3
10:30 1025 30.27 854 25.22 23 73.5 22 0.4 32.7
10:35 1025 30.27 855 25.25 24.1 75.3 22 1 33.7
10:40 1025 30.27 855 25.25 24.9 76.8 20 0.8 33.4
10:45 1025 30.27 855 25.25 25.1 77.3 20 1 33.8
10:50 1025 30.27 855 25.25 25.5 78 21 1.6 34.9
10:55 1025 30.27 855 25.25 25.9 78.5 21 2.2 36
11:00 1025 30.27 855 25.25 25 77 22 2.2 35.9
11:05 1025 30.27 854 25.22 24.9 76.8 21 1.7 35
11:10 1025 30.27 854 25.22 24.5 76.2 23 2.2 35.9
11:15 1025 30.27 854 25.22 24.9 76.9 23 2.7 36.8
11:20 1025 30.27 854 25.22 25.3 77.6 22 2.4 36.4
11:25 1025 30.27 854 25.22 25.3 77.6 22 2.1 35.8
11:30 1025 30.27 854 25.22 25 77 21 1.7 35.1
11:35 1025 30.27 854 25.22 25.5 77.9 20 1.2 34.2
11:40 1025 30.27 854 25.22 26.2 79.2 20 1.7 35.1
11:45 1025 30.27 854 25.22 25.6 78.1 21 2.1 35.8
11:50 1025 30.27 854 25.22 25.9 78.6 21 2 35.6
11:55 1025 30.27 854 25.22 26 78.9 21 2 35.6
12:00 1025 30.27 854 25.22 26.1 79 23 3.5 38.2
12:05 1025 30.27 854 25.22 26.1 79.1 24 4.1 39.3
12:10 1025 30.27 854 25.22 26 78.8 22 3.1 37.6
12:15 1025 30.27 854 25.22 26 78.8 21 2.6 36.6
12:20 1024 30.24 854 25.22 26.1 79 21 2 35.7
12:25 1024 30.24 854 25.22 26.8 80.2 22 3.5 38.4
12:30 1024 30.24 854 25.22 26.6 79.9 24 4.7 40.5
12:35 1024 30.24 854 25.22 26.3 79.4 25 5.3 41.5
12:40 1024 30.24 854 25.22 26.4 79.5 26 5.4 41.7
12:45 1024 30.24 854 25.22 26.5 79.6 25 5.3 41.5
12:50 1024 30.24 854 25.22 26.6 80 24 4.9 40.8
12:55 1024 30.24 854 25.22 26.4 79.5 26 5.7 42.3
13:00 1024 30.24 854 25.22 25.9 78.6 27 5.7 42.2
13:05 1024 30.24 853 25.19 26.5 79.7 26 5.8 42.5
13:10 1024 30.24 853 25.19 27 80.5 25 5.4 41.7
13:15 1024 30.24 853 25.19 26 78.8 27 5.8 42.4
13:20 1024 30.24 853 25.19 26.3 79.3 27 5.8 42.5
13:25 1024 30.24 853 25.19 27 80.7 24 5.1 41.3
13:30 1024 30.24 853 25.19 26.4 79.5 27 5.9 42.7
13:35 1024 30.24 853 25.19 26.8 80.3 26 6.3 43.3
13:40 1024 30.24 853 25.19 27.1 80.8 24 5.3 41.6
13:45 1024 30.24 853 25.19 27.7 81.9 27 7.1 44.7
13:50 1024 30.24 853 25.19 26.8 80.2 27 6.3 43.4
13:55 1024 30.24 853 25.19 27 80.5 27 6.4 43.6
14:00 1024 30.24 853 25.19 26.9 80.4 27 6.5 43.7
14:05 1023 30.21 853 25.19 26.8 80.3 27 6.6 43.9
14:10 1023 30.21 853 25.19 26.4 79.5 24 4.6 40.3
14:15 1023 30.21 853 25.19 26.7 80 24 4.6 40.4
14:20 1023 30.21 852 25.16 27.3 81.1 25 5.8 42.4
14:25 1023 30.21 852 25.16 27.2 80.9 26 6.1 43
14:30 1023 30.21 852 25.16 27.7 81.9 24 5.6 42.2
14:35 1023 30.21 852 25.16 27.7 81.8 24 5.6 42
14:40 1023 30.21 852 25.16 28.1 82.6 24 6.1 43
14:45 1023 30.21 852 25.16 28.6 83.6 25 6.9 44.4
14:50 1023 30.21 852 25.16 29.6 85.2 23 6.8 44.2
14:55 1023 30.21 852 25.16 29.8 85.6 15 0.7 33.2
15:00 1023 30.21 852 25.16 29.9 85.9 15 1 33.8
15:05 1023 30.21 852 25.16 30.4 86.8 18 4.1 39.3
15:10 1023 30.21 852 25.16 30.3 86.6 20 5 41
15:15 1023 30.21 852 25.16 30.4 86.8 19 4.3 39.8
15:20 1023 30.21 852 25.16 30.4 86.8 16 1.8 35.2
15:25 1023 30.21 852 25.16 30.6 87 16 2.7 36.8
15:30 1023 30.21 852 25.16 30.7 87.3 18 4.1 39.4
15:35 1023 30.21 852 25.16 30.8 87.5 15 1.3 34.3
15:40 1023 30.21 852 25.16 30.9 87.7 17 3.7 38.7
15:45 1023 30.21 852 25.16 31.3 88.3 16 3.1 37.6
15:50 1023 30.21 852 25.16 31.6 89 17 3.8 38.9
15:55 1023 30.21 852 25.16 31.5 88.7 15 2.1 35.8
16:00 1022 30.18 852 25.16 31.1 88 15 2 35.6
16:05 1022 30.18 852 25.16 31.1 88.1 17 3.5 38.3
16:10 1022 30.18 852 25.16 30.8 87.5 17 3.6 38.4
16:15 1022 30.18 852 25.16 30.9 87.5 17 3.4 38.1
16:20 1022 30.18 852 25.16 31.4 88.5 15 2.4 36.4
16:25 1022 30.18 852 25.16 31.4 88.4 17 3.5 38.3
16:30 1022 30.18 852 25.16 31.3 88.4 17 3.8 38.8
16:35 1022 30.18 852 25.16 30.9 87.5 19 4.9 40.8
16:40 1022 30.18 852 25.16 30.3 86.5 21 5.8 42.5
16:45 1022 30.18 852 25.16 29.8 85.6 22 6.2 43.1
16:50 1022 30.18 852 25.16 29.5 85 22 6.2 43.1
16:55 1022 30.18 852 25.16 29.4 84.8 22 5.6 42.1
17:00 1022 30.18 852 25.16 29.9 85.8 21 5.3 41.6
17:05 1022 30.18 852 25.16 30.1 86.2 21 5.4 41.8
17:10 1022 30.18 852 25.16 29.6 85.3 20 5 41
17:15 1022 30.18 852 25.16 28.9 84.1 23 6.3 43.4
17:20 1022 30.18 852 25.16 29 84.2 23 6.2 43.2
17:25 1022 30.18 852 25.16 29.3 84.7 22 5.5 41.8
17:30 1022 30.18 852 25.16 29.4 84.9 21 5.1 41.3
17:35 1022 30.18 852 25.16 29.2 84.5 22 5.4 41.8
17:40 1022 30.18 852 25.16 28.5 83.3 24 6 42.9
17:45 1022 30.18 852 25.16 27.8 82.1 27 7.3 45.1
17:50 1022 30.18 852 25.16 27.6 81.7 26 6.9 44.3
17:55 1022 30.18 852 25.16 27.6 81.6 26 6.4 43.6
18:00 1023 30.21 852 25.16 27.5 81.5 25 6.2 43.2
18:05 1023 30.21 852 25.16 27.4 81.4 26 6.4 43.5
18:10 1023 30.21 852 25.16 27.3 81.1 26 6.3 43.4
18:15 1023 30.21 852 25.16 26.9 80.4 27 6.4 43.5
18:20 1023 30.21 852 25.16 26.4 79.6 29 7.5 45.5
18:25 1023 30.21 852 25.16 26.1 79 30 7.5 45.5
18:30 1023 30.21 852 25.16 25.9 78.6 30 7.4 45.2
18:35 1023 30.21 852 25.16 25.8 78.4 31 7.8 46
18:40 1023 30.21 852 25.16 25.7 78.3 32 7.8 46.1
18:45 1023 30.21 852 25.16 25.5 77.9 32 8 46.4
18:50 1023 30.21 852 25.16 25.3 77.5 33 7.9 46.2
18:55 1023 30.21 852 25.16 25 77 33 7.8 46.1
19:00 1023 30.21 852 25.16 24.8 76.6 33 7.9 46.1
19:05 1023 30.21 852 25.16 24.6 76.2 34 7.8 46
19:10 1023 30.21 852 25.16 24.4 76 34 7.8 46.1
19:15 1023 30.21 852 25.16 24.4 76 33 7.4 45.4
19:20 1023 30.21 852 25.16 24.3 75.8 33 7.4 45.3
19:25 1023 30.21 852 25.16 24.2 75.5 33 7.3 45.1
19:30 1023 30.21 852 25.16 24 75.2 34 7.2 45
19:35 1023 30.21 852 25.16 23.8 74.9 34 7.4 45.4
19:40 1023 30.21 852 25.16 23.7 74.6 35 7.5 45.5
19:45 1023 30.21 852 25.16 23.6 74.4 35 7.6 45.6
19:50 1023 30.21 853 25.19 23.4 74.1 36 7.8 46
19:55 1023 30.21 853 25.19 23.2 73.8 36 7.4 45.4
20:00 1023 30.21 853 25.19 23.2 73.7 36 7.7 45.8
20:05 1023 30.21 853 25.19 22.9 73.2 39 8.6 47.4
20:10 1024 30.24 853 25.19 22.4 72.3 40 8.3 46.9
20:15 1024 30.24 853 25.19 22.2 71.9 42 8.6 47.6
20:20 1024 30.24 853 25.19 22.1 71.8 47 10.4 50.8
20:25 1024 30.24 853 25.19 22 71.5 46 10 50
20:30 1024 30.24 853 25.19 21.8 71.2 43 8.8 47.8
20:35 1024 30.24 853 25.19 21.9 71.4 39 7.7 45.8
20:40 1024 30.24 853 25.19 22.2 72 37 7.2 44.9
20:45 1024 30.24 853 25.19 22.3 72.1 37 7 44.6
20:50 1024 30.24 853 25.19 22.3 72.1 36 6.8 44.2
20:55 1024 30.24 853 25.19 22.3 72.1 37 6.9 44.4
21:00 1024 30.24 853 25.19 22.1 71.8 38 7.1 44.9
21:05 1024 30.24 853 25.19 22 71.5 37 7 44.6
21:10 1024 30.24 853 25.19 22 71.5 38 7.3 45.1
21:15 1024 30.24 853 25.19 21.7 71 39 7.4 45.3
21:20 1024 30.24 853 25.19 21.5 70.7 40 7.3 45.2
21:25 1024 30.24 853 25.19 21.5 70.8 39 7 44.6
21:30 1024 30.24 853 25.19 21.6 70.9 39 7.2 45
21:35 1024 30.24 853 25.19 21.5 70.6 39 7.3 45.1
21:40 1024 30.24 853 25.19 21.4 70.5 40 7.4 45.4
21:45 1024 30.24 853 25.19 21.3 70.4 41 7.6 45.7
21:50 1024 30.24 853 25.19 21.2 70.2 42 7.9 46.3
21:55 1024 30.24 853 25.19 21.3 70.3 41 7.6 45.6
22:00 1024 30.24 853 25.19 21.5 70.6 41 7.7 45.8
22:05 1024 30.24 853 25.19 21.4 70.4 41 7.7 45.8
22:10 1024 30.24 853 25.19 21.2 70.2 41 7.8 46
22:15 1024 30.24 853 25.19 21.1 70 41 7.7 45.8
22:20 1024 30.24 853 25.19 21.1 69.9 41 7.5 45.6
22:25 1024 30.24 853 25.19 21.1 69.9 41 7.5 45.5
22:30 1024 30.24 853 25.19 21.1 70 41 7.4 45.3
22:35 1024 30.24 853 25.19 21 69.9 41 7.5 45.5
22:40 1024 30.24 853 25.19 20.9 69.7 41 7.5 45.5
22:45 1024 30.24 853 25.19 20.9 69.6 42 7.5 45.5
22:50 1024 30.24 853 25.19 20.9 69.6 42 7.5 45.6
22:55 1024 30.24 854 25.22 20.7 69.3 42 7.6 45.7
23:00 1024 30.24 854 25.22 20.6 69 43 7.7 45.8
23:05 1024 30.24 854 25.22 20.5 68.8 44 7.8 46
23:10 1024 30.24 854 25.22 20.5 68.8 44 7.9 46.1
23:15 1024 30.24 854 25.22 20.3 68.6 44 7.9 46.2
23:20 1025 30.27 854 25.22 20.3 68.5 45 8 46.5
23:25 1025 30.27 854 25.22 20.3 68.5 45 8 46.5
23:30 1025 30.27 854 25.22 20.2 68.4 45 8.1 46.6
23:35 1025 30.27 854 25.22 20.2 68.3 45 8.1 46.6
23:40 1025 30.27 854 25.22 20.1 68.3 45 8.1 46.5
23:45 1025 30.27 854 25.22 20 68.1 46 8.1 46.7
23:50 1025 30.27 854 25.22 19.8 67.7 46 8.2 46.7
23:55 1025 30.27 854 25.22 19.7 67.5 47 8.1 46.6
24:00 1025 30.27 854 25.22 19.6 67.3 47 8 46.5